Time;durP1;ratioP1;P1;durP2;ratioP2;P2;SDS_P1;SDS_P2;PMS_P1;PMS_P2;Temp;Humidity;BMP_temperature;BMP_pressure;BME280_temperature;BME280_humidity;BME280_pressure;Samples;Min_cycle;Max_cycle;Signal;HPM_P1;HPM_P2
2023/08/10 00:02:12;;;;;;;6.93;1.85;;;;;;;;;;5024892;28;21822;-72
2023/08/10 00:04:38;;;;;;;8.63;1.50;;;;;;;;;;5026393;28;20159;-73
2023/08/10 00:07:04;;;;;;;6.80;1.67;;;;;;;;;;5024929;28;20104;-73
2023/08/10 00:09:31;;;;;;;4.07;1.60;;;;;;;;;;5025989;28;20435;-73
2023/08/10 00:11:57;;;;;;;5.72;1.75;;;;;;;;;;5027758;28;20021;-73
2023/08/10 00:14:23;;;;;;;8.88;1.73;;;;;;;;;;5024596;28;20033;-73
2023/08/10 00:16:50;;;;;;;11.70;2.30;;;;;;;;;;5022454;28;20065;-73
2023/08/10 00:19:16;;;;;;;8.35;1.75;;;;;;;;;;5025620;28;20029;-73
2023/08/10 00:21:42;;;;;;;7.25;1.85;;;;;;;;;;5025648;28;20255;-71
2023/08/10 00:24:08;;;;;;;6.07;2.38;;;;;;;;;;5023362;28;20502;-74
2023/08/10 00:26:34;;;;;;;4.55;1.50;;;;;;;;;;5026389;28;20256;-74
2023/08/10 00:29:00;;;;;;;7.78;1.70;;;;;;;;;;5023371;28;20025;-72
2023/08/10 00:31:27;;;;;;;6.22;1.70;;;;;;;;;;5023662;28;20021;-72
2023/08/10 00:33:53;;;;;;;6.13;2.00;;;;;;;;;;5040455;28;20024;-72
2023/08/10 00:36:19;;;;;;;5.22;1.52;;;;;;;;;;5028355;28;20031;-72
2023/08/10 00:38:46;;;;;;;4.68;1.60;;;;;;;;;;5023963;28;20124;-73
2023/08/10 00:41:12;;;;;;;5.25;1.90;;;;;;;;;;5025790;28;20044;-73
2023/08/10 00:43:40;;;;;;;9.00;2.03;;;;;;;;;;5025596;28;20037;-72
2023/08/10 00:46:06;;;;;;;7.93;2.10;;;;;;;;;;5026703;28;20025;-73
2023/08/10 00:48:32;;;;;;;6.05;1.85;;;;;;;;;;5023448;28;20040;-72
2023/08/10 00:50:58;;;;;;;8.88;2.20;;;;;;;;;;5039047;28;20474;-72
2023/08/10 00:53:26;;;;;;;3.05;1.85;;;;;;;;;;5023447;28;20364;-72
2023/08/10 00:55:53;;;;;;;9.80;3.10;;;;;;;;;;5023267;28;20151;-72
2023/08/10 00:58:20;;;;;;;7.50;2.05;;;;;;;;;;5025744;28;20063;-72
2023/08/10 01:00:46;;;;;;;2.33;1.65;;;;;;;;;;5022965;28;20040;-72
2023/08/10 01:03:12;;;;;;;7.50;1.73;;;;;;;;;;5023501;28;20454;-72
2023/08/10 01:05:44;;;;;;;8.07;1.70;;;;;;;;;;5022426;28;20025;-72
2023/08/10 01:08:13;;;;;;;5.90;1.80;;;;;;;;;;5024363;28;20033;-72
2023/08/10 01:10:54;;;;;;;6.65;1.85;;;;;;;;;;5037786;28;20030;-72
2023/08/10 01:13:22;;;;;;;6.55;1.63;;;;;;;;;;5021204;28;20029;-72
2023/08/10 01:15:57;;;;;;;5.00;1.90;;;;;;;;;;5024408;28;20041;-71
2023/08/10 01:18:27;;;;;;;4.45;1.75;;;;;;;;;;5025089;28;20396;-72
2023/08/10 01:20:57;;;;;;;4.45;1.90;;;;;;;;;;5037899;28;20033;-72
2023/08/10 01:23:32;;;;;;;8.77;2.30;;;;;;;;;;5022972;28;20033;-72
2023/08/10 01:25:59;;;;;;;5.15;1.98;;;;;;;;;;5039328;28;20080;-72
2023/08/10 01:28:26;;;;;;;4.43;1.85;;;;;;;;;;5020148;28;20044;-71
2023/08/10 01:30:52;;;;;;;6.28;1.85;;;;;;;;;;5023979;28;20037;-71
2023/08/10 01:33:19;;;;;;;5.22;2.38;;;;;;;;;;5023688;28;20034;-72
2023/08/10 01:35:45;;;;;;;6.20;2.58;;;;;;;;;;5022931;28;20133;-72
2023/08/10 01:38:11;;;;;;;8.73;2.40;;;;;;;;;;5022161;28;20037;-72
2023/08/10 01:40:38;;;;;;;10.63;2.85;;;;;;;;;;5024508;28;20127;-72
2023/08/10 01:43:04;;;;;;;4.47;2.08;;;;;;;;;;5038629;28;20099;-72
2023/08/10 01:45:30;;;;;;;3.38;1.58;;;;;;;;;;5021897;28;20037;-72
2023/08/10 01:48:26;;;;;;;6.63;2.08;;;;;;;;;;5026421;28;20033;-72
2023/08/10 01:50:53;;;;;;;5.45;2.88;;;;;;;;;;5009060;28;20556;-72
2023/08/10 01:53:22;;;;;;;7.53;2.17;;;;;;;;;;5021211;28;20025;-74
2023/08/10 01:55:48;;;;;;;5.30;2.65;;;;;;;;;;5021933;28;20064;-72
2023/08/10 01:58:14;;;;;;;5.28;2.20;;;;;;;;;;5024778;28;20037;-73
2023/08/10 02:00:40;;;;;;;6.70;2.80;;;;;;;;;;5022183;28;20034;-73
2023/08/10 02:03:06;;;;;;;7.05;2.53;;;;;;;;;;5024819;28;20025;-72
2023/08/10 02:05:32;;;;;;;4.63;1.75;;;;;;;;;;5023497;28;20422;-73
2023/08/10 02:07:58;;;;;;;5.88;2.40;;;;;;;;;;5037430;28;20053;-72
2023/08/10 02:10:24;;;;;;;5.20;2.30;;;;;;;;;;5021280;28;20111;-73
2023/08/10 02:12:50;;;;;;;4.22;1.98;;;;;;;;;;5022956;28;20022;-73
2023/08/10 02:15:16;;;;;;;6.68;2.08;;;;;;;;;;5017851;28;20091;-73
2023/08/10 02:17:42;;;;;;;2.38;1.73;;;;;;;;;;5021763;28;20065;-73
2023/08/10 02:20:12;;;;;;;6.00;2.22;;;;;;;;;;5025699;28;20029;-73
2023/08/10 02:22:39;;;;;;;4.13;1.70;;;;;;;;;;5022735;28;20065;-73
2023/08/10 02:25:06;;;;;;;7.10;2.03;;;;;;;;;;5021245;28;20045;-74
2023/08/10 02:27:32;;;;;;;3.22;1.90;;;;;;;;;;5020374;28;20471;-73
2023/08/10 02:29:58;;;;;;;10.32;2.00;;;;;;;;;;5027532;28;20398;-72
2023/08/10 02:32:24;;;;;;;5.30;1.77;;;;;;;;;;5021708;28;20029;-73
2023/08/10 02:34:50;;;;;;;4.55;1.67;;;;;;;;;;5023294;28;20049;-73
2023/08/10 02:37:16;;;;;;;6.55;2.25;;;;;;;;;;5021378;28;20029;-73
2023/08/10 02:39:42;;;;;;;4.22;2.03;;;;;;;;;;5024126;28;20414;-73
2023/08/10 02:42:08;;;;;;;7.32;2.28;;;;;;;;;;5027663;28;20034;-74
2023/08/10 02:44:34;;;;;;;5.20;2.05;;;;;;;;;;5023176;28;20032;-72
2023/08/10 02:47:00;;;;;;;5.95;2.17;;;;;;;;;;5022991;28;20017;-73
2023/08/10 02:49:27;;;;;;;8.23;1.70;;;;;;;;;;5019915;28;20625;-72
2023/08/10 02:51:52;;;;;;;4.55;1.95;;;;;;;;;;5020511;28;20033;-72
2023/08/10 02:54:18;;;;;;;5.82;2.47;;;;;;;;;;5022892;28;20022;-74
2023/08/10 02:56:44;;;;;;;6.25;2.38;;;;;;;;;;5023200;28;20038;-72
2023/08/10 02:59:10;;;;;;;3.28;1.60;;;;;;;;;;5037699;28;20034;-72
2023/08/10 03:01:37;;;;;;;6.63;2.10;;;;;;;;;;5021164;28;20029;-72
2023/08/10 03:04:03;;;;;;;7.38;1.90;;;;;;;;;;5020978;28;20021;-73
2023/08/10 03:06:29;;;;;;;7.95;2.05;;;;;;;;;;5022476;28;20048;-71
2023/08/10 03:08:55;;;;;;;4.68;2.30;;;;;;;;;;5020726;28;20057;-72
2023/08/10 03:11:21;;;;;;;6.55;2.38;;;;;;;;;;5024456;28;20610;-72
2023/08/10 03:13:47;;;;;;;7.63;2.47;;;;;;;;;;5023194;28;20118;-71
2023/08/10 03:16:13;;;;;;;8.23;2.10;;;;;;;;;;5022536;28;20037;-71
2023/08/10 03:18:39;;;;;;;3.08;2.15;;;;;;;;;;5021745;28;20415;-71
2023/08/10 03:21:05;;;;;;;6.88;2.35;;;;;;;;;;5020161;28;20070;-72
2023/08/10 03:23:31;;;;;;;8.93;2.20;;;;;;;;;;5022872;28;20105;-74
2023/08/10 03:25:57;;;;;;;4.82;1.98;;;;;;;;;;5023328;28;20136;-72
2023/08/10 03:28:24;;;;;;;5.10;2.10;;;;;;;;;;5026247;28;20148;-73
2023/08/10 03:30:50;;;;;;;4.00;1.80;;;;;;;;;;5021596;28;20479;-72
2023/08/10 03:33:16;;;;;;;4.95;1.83;;;;;;;;;;5022177;28;20052;-73
2023/08/10 03:35:42;;;;;;;6.00;1.83;;;;;;;;;;5037482;28;20049;-72
2023/08/10 03:38:08;;;;;;;6.47;2.10;;;;;;;;;;5027287;28;20037;-74
2023/08/10 03:40:34;;;;;;;4.70;1.88;;;;;;;;;;5023694;28;20406;-73
2023/08/10 03:43:00;;;;;;;6.82;1.80;;;;;;;;;;5026213;28;20029;-72
2023/08/10 03:45:26;;;;;;;5.43;1.88;;;;;;;;;;5024380;28;20215;-74
2023/08/10 03:47:52;;;;;;;3.35;1.80;;;;;;;;;;5027019;28;20495;-72
2023/08/10 03:50:19;;;;;;;4.07;1.70;;;;;;;;;;5040330;28;20033;-72
2023/08/10 03:52:45;;;;;;;5.03;1.90;;;;;;;;;;5026676;28;20765;-74
2023/08/10 03:55:12;;;;;;;5.72;1.80;;;;;;;;;;5025572;28;20053;-73
2023/08/10 03:57:38;;;;;;;8.50;3.10;;;;;;;;;;5025220;28;20032;-73
2023/08/10 04:00:05;;;;;;;5.13;1.95;;;;;;;;;;5025319;28;20119;-73
2023/08/10 04:02:31;;;;;;;5.47;2.20;;;;;;;;;;5026542;28;20053;-72
2023/08/10 04:04:58;;;;;;;3.15;1.30;;;;;;;;;;5023922;28;20116;-72
2023/08/10 04:07:24;;;;;;;7.18;2.60;;;;;;;;;;5023202;28;20037;-72
2023/08/10 04:09:51;;;;;;;7.10;1.80;;;;;;;;;;5027600;28;20072;-72
2023/08/10 04:12:17;;;;;;;5.68;2.17;;;;;;;;;;5025075;28;20030;-72
2023/08/10 04:14:43;;;;;;;4.40;1.60;;;;;;;;;;5022202;28;20033;-72
2023/08/10 04:17:09;;;;;;;8.63;1.80;;;;;;;;;;5022368;28;20042;-72
2023/08/10 04:19:35;;;;;;;4.10;1.98;;;;;;;;;;5026157;28;20029;-72
2023/08/10 04:22:01;;;;;;;3.33;1.67;;;;;;;;;;5022194;28;20107;-72
2023/08/10 04:24:27;;;;;;;7.28;2.55;;;;;;;;;;5024642;28;20069;-73
2023/08/10 04:26:53;;;;;;;7.35;2.25;;;;;;;;;;5035854;28;20451;-74
2023/08/10 04:29:19;;;;;;;8.77;1.90;;;;;;;;;;5023225;28;20037;-74
2023/08/10 04:31:45;;;;;;;6.45;1.67;;;;;;;;;;5024284;28;20040;-73
2023/08/10 04:34:11;;;;;;;11.20;7.03;;;;;;;;;;5036363;28;20534;-72
2023/08/10 04:36:37;;;;;;;6.22;2.30;;;;;;;;;;5028166;28;20049;-72
2023/08/10 04:39:03;;;;;;;6.13;1.90;;;;;;;;;;5030199;28;20077;-72
2023/08/10 04:41:29;;;;;;;3.67;1.85;;;;;;;;;;5030549;28;20030;-73
2023/08/10 04:43:55;;;;;;;5.35;2.00;;;;;;;;;;5021670;28;20399;-73
2023/08/10 04:46:21;;;;;;;3.13;1.40;;;;;;;;;;5023796;28;20043;-74
2023/08/10 04:48:47;;;;;;;3.80;1.30;;;;;;;;;;5020536;28;20045;-74
2023/08/10 04:51:13;;;;;;;6.43;1.70;;;;;;;;;;5024569;28;20070;-74
2023/08/10 04:53:39;;;;;;;3.63;1.63;;;;;;;;;;5026434;28;20026;-75
2023/08/10 04:56:05;;;;;;;6.72;1.40;;;;;;;;;;5028194;28;20077;-74
2023/08/10 04:58:31;;;;;;;7.13;1.55;;;;;;;;;;5029430;28;20064;-73
2023/08/10 05:00:58;;;;;;;3.15;1.45;;;;;;;;;;5028333;28;20475;-73
2023/08/10 05:03:24;;;;;;;7.90;1.75;;;;;;;;;;5023491;28;20021;-74
2023/08/10 05:05:51;;;;;;;6.15;2.97;;;;;;;;;;5022343;28;20037;-76
2023/08/10 05:08:17;;;;;;;6.45;2.30;;;;;;;;;;5035173;28;20025;-76
2023/08/10 05:10:44;;;;;;;7.07;1.63;;;;;;;;;;5034450;28;20034;-75
2023/08/10 05:13:10;;;;;;;11.63;2.35;;;;;;;;;;5035043;28;20034;-76
2023/08/10 05:15:36;;;;;;;6.50;2.00;;;;;;;;;;5034556;28;20459;-76
2023/08/10 05:18:02;;;;;;;5.88;2.30;;;;;;;;;;5025776;28;20029;-74
2023/08/10 05:20:28;;;;;;;6.43;2.55;;;;;;;;;;5024693;28;20057;-74
2023/08/10 05:22:54;;;;;;;7.35;2.38;;;;;;;;;;5022461;28;20038;-75
2023/08/10 05:25:20;;;;;;;7.25;2.13;;;;;;;;;;5038941;28;20061;-75
2023/08/10 05:27:47;;;;;;;6.93;2.30;;;;;;;;;;5022772;28;20065;-76
2023/08/10 05:30:13;;;;;;;5.45;2.25;;;;;;;;;;5021016;28;20026;-75
2023/08/10 05:32:40;;;;;;;7.28;2.28;;;;;;;;;;5026288;28;20112;-75
2023/08/10 05:35:07;;;;;;;5.82;2.30;;;;;;;;;;5030563;28;20033;-75
2023/08/10 05:37:34;;;;;;;7.47;3.72;;;;;;;;;;5023909;28;20030;-74
2023/08/10 05:40:01;;;;;;;9.50;4.07;;;;;;;;;;5026103;28;20478;-72
2023/08/10 05:42:27;;;;;;;5.78;2.20;;;;;;;;;;5028768;28;20029;-74
2023/08/10 05:44:53;;;;;;;8.07;2.35;;;;;;;;;;5023218;28;21771;-74
2023/08/10 05:47:19;;;;;;;6.93;1.90;;;;;;;;;;5023347;28;20065;-75
2023/08/10 05:49:45;;;;;;;7.38;2.00;;;;;;;;;;5039758;28;20046;-74
2023/08/10 05:52:11;;;;;;;6.03;2.25;;;;;;;;;;5022950;28;20200;-74
2023/08/10 05:54:37;;;;;;;8.88;2.10;;;;;;;;;;5037047;28;20493;-73
2023/08/10 05:57:04;;;;;;;7.95;1.90;;;;;;;;;;5023993;28;20041;-74
2023/08/10 05:59:30;;;;;;;6.03;1.95;;;;;;;;;;5022188;28;20021;-74
2023/08/10 06:01:57;;;;;;;6.97;3.38;;;;;;;;;;5024027;28;20037;-75
2023/08/10 06:04:23;;;;;;;3.50;1.63;;;;;;;;;;5029832;28;20121;-74
2023/08/10 06:06:49;;;;;;;6.97;2.75;;;;;;;;;;5024093;28;20044;-74
2023/08/10 06:09:16;;;;;;;7.68;2.17;;;;;;;;;;5016112;28;20668;-75
2023/08/10 06:11:42;;;;;;;4.93;1.98;;;;;;;;;;5026198;28;20091;-74
2023/08/10 06:14:09;;;;;;;6.68;2.03;;;;;;;;;;5026235;28;20040;-76
2023/08/10 06:16:35;;;;;;;5.88;1.55;;;;;;;;;;5022930;28;20037;-74
2023/08/10 06:19:01;;;;;;;3.20;1.50;;;;;;;;;;5021097;28;20033;-74
2023/08/10 06:21:27;;;;;;;5.68;1.52;;;;;;;;;;5028427;28;20025;-74
2023/08/10 06:23:53;;;;;;;6.82;1.40;;;;;;;;;;5025038;28;20079;-74
2023/08/10 06:26:19;;;;;;;5.35;1.60;;;;;;;;;;5026524;28;20444;-73
2023/08/10 06:28:45;;;;;;;6.95;1.88;;;;;;;;;;5023530;28;20395;-73
2023/08/10 06:31:12;;;;;;;4.82;1.48;;;;;;;;;;5027363;28;20467;-74
2023/08/10 06:33:38;;;;;;;5.70;1.33;;;;;;;;;;5021103;28;20030;-74
2023/08/10 06:36:06;;;;;;;4.72;1.35;;;;;;;;;;5023409;28;20041;-75
2023/08/10 06:38:34;;;;;;;3.20;1.20;;;;;;;;;;5024921;28;20485;-74
2023/08/10 06:41:01;;;;;;;5.60;1.30;;;;;;;;;;5024886;28;20030;-73
2023/08/10 06:43:27;;;;;;;5.30;1.40;;;;;;;;;;5025319;28;20064;-74
2023/08/10 06:45:53;;;;;;;4.00;1.20;;;;;;;;;;5024625;28;20440;-76
2023/08/10 06:48:19;;;;;;;5.32;1.33;;;;;;;;;;5024508;28;20100;-74
2023/08/10 06:50:45;;;;;;;2.70;1.00;;;;;;;;;;5024619;28;20101;-74
2023/08/10 06:53:14;;;;;;;3.85;1.65;;;;;;;;;;5026207;28;20036;-75
2023/08/10 06:55:42;;;;;;;8.55;1.08;;;;;;;;;;5023354;28;20057;-74
2023/08/10 06:58:08;;;;;;;7.60;1.08;;;;;;;;;;5022181;28;20242;-74
2023/08/10 07:00:35;;;;;;;4.63;1.05;;;;;;;;;;5024179;28;20036;-74
2023/08/10 07:03:03;;;;;;;4.75;1.00;;;;;;;;;;5023040;28;20100;-75
2023/08/10 07:05:29;;;;;;;3.70;1.00;;;;;;;;;;5022134;28;20034;-75
2023/08/10 07:07:55;;;;;;;9.32;1.20;;;;;;;;;;5025526;28;20079;-74
2023/08/10 07:10:22;;;;;;;8.20;1.27;;;;;;;;;;5024033;28;20471;-74
2023/08/10 07:12:48;;;;;;;4.47;1.20;;;;;;;;;;5041904;28;20511;-74
2023/08/10 07:15:14;;;;;;;2.08;0.80;;;;;;;;;;5025969;28;20029;-75
2023/08/10 07:17:40;;;;;;;3.75;1.30;;;;;;;;;;5017707;28;20049;-76
2023/08/10 07:20:08;;;;;;;1.90;0.90;;;;;;;;;;5025732;28;20108;-73
2023/08/10 07:22:34;;;;;;;2.53;1.02;;;;;;;;;;5021038;28;20465;-75
2023/08/10 07:25:05;;;;;;;3.17;0.93;;;;;;;;;;5039992;28;20037;-76
2023/08/10 07:27:32;;;;;;;7.38;1.23;;;;;;;;;;5022593;28;20045;-76
2023/08/10 07:29:58;;;;;;;8.85;2.10;;;;;;;;;;5022858;28;20073;-78
2023/08/10 07:32:24;;;;;;;39.30;22.42;;;;;;;;;;5026034;28;20076;-77
2023/08/10 07:34:50;;;;;;;5.60;1.50;;;;;;;;;;5039557;28;20030;-76
2023/08/10 07:37:16;;;;;;;6.13;1.17;;;;;;;;;;5024764;28;20486;-76
2023/08/10 07:39:42;;;;;;;5.50;0.85;;;;;;;;;;5025277;28;20144;-75
2023/08/10 07:42:08;;;;;;;2.90;1.08;;;;;;;;;;5022902;28;20579;-78
2023/08/10 07:44:34;;;;;;;9.70;1.38;;;;;;;;;;5025736;28;20109;-74
2023/08/10 07:47:00;;;;;;;7.85;1.45;;;;;;;;;;5029149;28;20112;-76
2023/08/10 07:49:27;;;;;;;21.27;11.32;;;;;;;;;;5030255;28;20133;-77
2023/08/10 07:51:53;;;;;;;3.53;1.30;;;;;;;;;;5032023;28;20026;-77
2023/08/10 07:54:19;;;;;;;5.03;1.25;;;;;;;;;;5029821;28;20579;-77
2023/08/10 07:56:46;;;;;;;7.20;1.50;;;;;;;;;;5030700;28;20084;-77
2023/08/10 07:59:12;;;;;;;71.40;13.38;;;;;;;;;;5025371;28;20041;-77
2023/08/10 08:01:38;;;;;;;17.00;3.25;;;;;;;;;;5019268;28;20028;-76
2023/08/10 08:04:05;;;;;;;31.80;6.43;;;;;;;;;;5029120;28;20055;-75
2023/08/10 08:06:32;;;;;;;3.70;1.67;;;;;;;;;;5018873;28;20611;-75
2023/08/10 08:08:58;;;;;;;5.90;1.70;;;;;;;;;;5019531;28;20076;-76
2023/08/10 08:11:24;;;;;;;4.70;1.25;;;;;;;;;;5022517;28;20018;-75
2023/08/10 08:13:50;;;;;;;5.30;1.30;;;;;;;;;;5019417;28;20065;-76
2023/08/10 08:16:16;;;;;;;4.35;1.30;;;;;;;;;;5018740;28;20282;-75
2023/08/10 08:18:43;;;;;;;2.65;0.95;;;;;;;;;;5018935;28;20091;-75
2023/08/10 08:21:12;;;;;;;5.82;1.50;;;;;;;;;;5021940;28;20037;-75
2023/08/10 08:23:38;;;;;;;6.20;1.20;;;;;;;;;;5012985;28;20537;-76
2023/08/10 08:26:04;;;;;;;6.93;1.20;;;;;;;;;;5013966;28;20623;-75
2023/08/10 08:28:30;;;;;;;9.65;2.00;;;;;;;;;;5014804;28;20042;-75
2023/08/10 08:30:56;;;;;;;5.32;1.63;;;;;;;;;;5037992;28;20637;-79
2023/08/10 08:33:22;;;;;;;5.55;1.60;;;;;;;;;;5025436;28;20064;-78
2023/08/10 08:35:48;;;;;;;5.07;1.20;;;;;;;;;;5027650;28;20045;-77
2023/08/10 08:38:15;;;;;;;2.70;0.80;;;;;;;;;;5023233;28;20026;-77
2023/08/10 08:40:42;;;;;;;6.07;1.10;;;;;;;;;;5016312;28;20049;-77
2023/08/10 08:43:09;;;;;;;6.50;2.35;;;;;;;;;;5016880;28;20029;-78
2023/08/10 08:45:35;;;;;;;3.53;0.90;;;;;;;;;;5019125;28;20874;-77
2023/08/10 08:48:05;;;;;;;8.70;1.27;;;;;;;;;;5022057;28;20091;-76
2023/08/10 08:50:31;;;;;;;4.65;1.35;;;;;;;;;;5021502;28;20029;-77
2023/08/10 08:52:59;;;;;;;5.93;1.00;;;;;;;;;;5024412;28;21013;-77
2023/08/10 08:55:25;;;;;;;3.20;0.90;;;;;;;;;;5021723;28;20490;-77
2023/08/10 08:57:51;;;;;;;6.25;1.70;;;;;;;;;;5019777;28;20035;-77
2023/08/10 09:00:17;;;;;;;10.38;1.33;;;;;;;;;;5024256;28;20513;-77
2023/08/10 09:02:43;;;;;;;5.95;1.20;;;;;;;;;;5022149;28;20049;-77
2023/08/10 09:05:09;;;;;;;8.95;1.20;;;;;;;;;;5019078;28;20068;-78
2023/08/10 09:07:35;;;;;;;3.53;0.85;;;;;;;;;;5025322;28;20041;-77
2023/08/10 09:10:01;;;;;;;3.97;1.17;;;;;;;;;;5021985;28;20714;-78
2023/08/10 09:12:31;;;;;;;7.95;1.67;;;;;;;;;;5003140;28;20352;-80
2023/08/10 09:15:04;;;;;;;5.25;1.20;;;;;;;;;;5016672;28;20353;-77
2023/08/10 09:17:31;;;;;;;6.78;1.33;;;;;;;;;;5015495;28;20119;-79
2023/08/10 09:19:57;;;;;;;91.50;56.17;;;;;;;;;;5019341;28;20476;-78
2023/08/10 09:22:34;;;;;;;5.47;2.13;;;;;;;;;;5021356;28;20030;-78
2023/08/10 09:25:01;;;;;;;9.68;3.95;;;;;;;;;;5024348;28;20029;-76
2023/08/10 09:27:28;;;;;;;3.30;0.90;;;;;;;;;;5024787;28;20091;-76
2023/08/10 09:30:04;;;;;;;6.45;2.25;;;;;;;;;;5027799;28;20383;-74
2023/08/10 09:32:31;;;;;;;6.35;1.13;;;;;;;;;;5017483;28;20104;-76
2023/08/10 09:34:57;;;;;;;10.13;1.23;;;;;;;;;;5015926;28;20131;-76
2023/08/10 09:37:26;;;;;;;9.80;2.58;;;;;;;;;;5012490;28;20033;-75
2023/08/10 09:39:56;;;;;;;4.32;1.10;;;;;;;;;;5006307;28;20057;-77
2023/08/10 09:42:23;;;;;;;3.72;1.15;;;;;;;;;;5017622;28;20025;-73
2023/08/10 09:44:50;;;;;;;3.25;1.20;;;;;;;;;;5015909;28;20037;-76
2023/08/10 09:47:17;;;;;;;8.77;1.08;;;;;;;;;;5020213;28;20041;-77
2023/08/10 09:49:57;;;;;;;5.40;0.85;;;;;;;;;;5022861;28;20167;-76
2023/08/10 09:52:24;;;;;;;2.22;0.70;;;;;;;;;;5018383;28;20037;-75
2023/08/10 09:54:50;;;;;;;2.83;0.80;;;;;;;;;;5016570;28;20488;-74
2023/08/10 09:57:18;;;;;;;3.97;1.20;;;;;;;;;;5017863;28;20271;-74
2023/08/10 09:59:45;;;;;;;6.80;0.80;;;;;;;;;;5017967;28;20356;-74
2023/08/10 10:02:11;;;;;;;4.55;1.25;;;;;;;;;;5012996;28;20458;-75
2023/08/10 10:04:38;;;;;;;1.85;0.82;;;;;;;;;;5031489;28;20443;-73
2023/08/10 10:07:04;;;;;;;3.92;1.00;;;;;;;;;;5020319;28;20096;-75
2023/08/10 10:09:30;;;;;;;4.53;1.27;;;;;;;;;;5016446;28;20033;-74
2023/08/10 10:11:59;;;;;;;2.38;1.00;;;;;;;;;;5015126;28;20029;-75
2023/08/10 10:14:25;;;;;;;1.80;0.95;;;;;;;;;;5014566;28;20445;-76
2023/08/10 10:16:52;;;;;;;4.60;1.08;;;;;;;;;;5036021;28;20038;-75
2023/08/10 10:19:18;;;;;;;6.13;1.25;;;;;;;;;;5021718;28;20052;-76
2023/08/10 10:21:44;;;;;;;3.97;0.95;;;;;;;;;;5018244;28;20044;-75
2023/08/10 10:24:13;;;;;;;2.97;1.05;;;;;;;;;;5020216;28;20051;-77
2023/08/10 10:26:39;;;;;;;2.15;1.17;;;;;;;;;;5017522;28;20491;-77
2023/08/10 10:29:16;;;;;;;4.55;1.63;;;;;;;;;;5017437;28;20033;-78
2023/08/10 10:31:42;;;;;;;3.78;1.20;;;;;;;;;;5014008;28;20032;-75
2023/08/10 10:34:13;;;;;;;4.18;1.40;;;;;;;;;;5020046;28;20056;-74
2023/08/10 10:36:40;;;;;;;10.27;3.28;;;;;;;;;;5020368;28;20044;-75
2023/08/10 10:39:07;;;;;;;6.28;1.20;;;;;;;;;;5018518;28;20049;-75
2023/08/10 10:41:34;;;;;;;5.22;1.55;;;;;;;;;;5029625;28;20025;-73
2023/08/10 10:44:03;;;;;;;8.48;1.50;;;;;;;;;;5019685;28;20677;-76
2023/08/10 10:46:31;;;;;;;3.50;1.33;;;;;;;;;;5023516;28;20593;-75
2023/08/10 10:48:58;;;;;;;5.85;1.88;;;;;;;;;;5024245;28;20057;-74
2023/08/10 10:51:24;;;;;;;6.50;1.40;;;;;;;;;;5025032;28;20160;-73
2023/08/10 10:53:54;;;;;;;5.22;1.38;;;;;;;;;;5037704;28;20029;-73
2023/08/10 10:56:25;;;;;;;3.60;1.10;;;;;;;;;;5023813;28;20584;-74
2023/08/10 10:58:51;;;;;;;3.50;1.27;;;;;;;;;;5023395;28;20018;-76
2023/08/10 11:01:20;;;;;;;19.15;12.02;;;;;;;;;;5018911;28;20032;-77
2023/08/10 11:03:56;;;;;;;5.15;1.55;;;;;;;;;;5022317;28;20033;-76
2023/08/10 11:06:26;;;;;;;9.05;2.00;;;;;;;;;;5021426;28;20033;-76
2023/08/10 11:08:54;;;;;;;3.88;1.55;;;;;;;;;;5019544;28;20029;-78
2023/08/10 11:11:20;;;;;;;3.05;1.35;;;;;;;;;;5019021;28;22006;-73
2023/08/10 11:13:46;;;;;;;4.57;1.80;;;;;;;;;;5020205;28;20037;-73
2023/08/10 11:16:12;;;;;;;5.97;1.88;;;;;;;;;;5021353;28;20034;-74
2023/08/10 11:18:38;;;;;;;3.78;1.60;;;;;;;;;;5026053;28;20021;-74
2023/08/10 11:21:07;;;;;;;3.03;1.88;;;;;;;;;;5020022;28;20340;-75
2023/08/10 11:23:33;;;;;;;8.50;2.28;;;;;;;;;;5024090;28;20109;-74
2023/08/10 11:26:02;;;;;;;7.90;1.90;;;;;;;;;;5021433;28;20120;-74
2023/08/10 11:28:28;;;;;;;6.53;1.90;;;;;;;;;;5014002;28;20067;-74
2023/08/10 11:30:54;;;;;;;13.15;3.53;;;;;;;;;;5033247;28;20026;-73
2023/08/10 11:33:20;;;;;;;4.75;2.00;;;;;;;;;;5028261;28;20214;-74
2023/08/10 11:35:50;;;;;;;6.50;2.42;;;;;;;;;;5030145;28;20045;-73
2023/08/10 11:38:16;;;;;;;5.63;2.20;;;;;;;;;;5026174;28;20057;-74
2023/08/10 11:40:42;;;;;;;9.82;2.20;;;;;;;;;;5027624;28;20054;-75
2023/08/10 11:43:14;;;;;;;6.90;2.00;;;;;;;;;;5027058;28;20041;-73
2023/08/10 11:45:40;;;;;;;8.70;2.42;;;;;;;;;;5031522;28;20499;-74
2023/08/10 11:48:09;;;;;;;5.30;2.30;;;;;;;;;;5031401;28;20056;-73
2023/08/10 11:50:38;;;;;;;7.45;2.17;;;;;;;;;;5028571;28;20029;-73
2023/08/10 11:53:18;;;;;;;4.60;1.90;;;;;;;;;;5030620;28;20021;-74
2023/08/10 11:55:46;;;;;;;3.90;2.08;;;;;;;;;;5027318;28;20479;-74
2023/08/10 11:58:13;;;;;;;4.40;2.45;;;;;;;;;;5020591;28;20030;-76
2023/08/10 12:00:41;;;;;;;7.15;2.10;;;;;;;;;;5022675;28;20300;-74
2023/08/10 12:03:14;;;;;;;6.53;2.17;;;;;;;;;;5035453;28;20104;-76
2023/08/10 12:05:40;;;;;;;4.93;2.40;;;;;;;;;;5021825;28;20797;-74
2023/08/10 12:08:11;;;;;;;4.13;2.05;;;;;;;;;;5038671;28;20120;-75
2023/08/10 12:10:41;;;;;;;6.88;3.10;;;;;;;;;;5022899;28;20026;-73
2023/08/10 12:13:10;;;;;;;5.22;2.15;;;;;;;;;;5030274;28;20037;-75
2023/08/10 12:15:37;;;;;;;3.90;2.15;;;;;;;;;;5016707;28;20478;-75
2023/08/10 12:18:03;;;;;;;7.40;2.60;;;;;;;;;;5024541;28;20038;-74
2023/08/10 12:20:30;;;;;;;5.18;2.42;;;;;;;;;;5022760;28;20045;-73
2023/08/10 12:22:56;;;;;;;6.65;2.38;;;;;;;;;;5021573;28;20195;-72
2023/08/10 12:25:22;;;;;;;6.10;3.08;;;;;;;;;;5019676;28;20041;-76
2023/08/10 12:27:48;;;;;;;9.60;6.72;;;;;;;;;;5023949;28;20038;-73
2023/08/10 12:30:15;;;;;;;6.90;2.78;;;;;;;;;;5038362;28;20117;-72
2023/08/10 12:32:41;;;;;;;2.58;2.00;;;;;;;;;;5037785;28;20044;-72
2023/08/10 12:35:07;;;;;;;8.40;2.40;;;;;;;;;;5017436;28;20112;-73
2023/08/10 12:37:33;;;;;;;5.95;2.13;;;;;;;;;;5021292;28;20813;-73
2023/08/10 12:39:59;;;;;;;4.38;1.80;;;;;;;;;;5022495;28;20060;-73
2023/08/10 12:42:25;;;;;;;4.20;2.00;;;;;;;;;;5023701;28;20047;-72
2023/08/10 12:44:52;;;;;;;6.10;2.53;;;;;;;;;;5026344;28;20029;-73
2023/08/10 12:47:18;;;;;;;5.20;2.08;;;;;;;;;;5026162;28;20870;-73
2023/08/10 12:49:44;;;;;;;4.97;2.47;;;;;;;;;;5029247;28;20064;-73
2023/08/10 12:52:10;;;;;;;9.52;2.35;;;;;;;;;;5026940;28;20146;-76
2023/08/10 12:54:37;;;;;;;7.50;2.08;;;;;;;;;;5025656;28;20061;-76
2023/08/10 12:57:04;;;;;;;6.72;2.25;;;;;;;;;;5026627;28;20045;-74
2023/08/10 12:59:30;;;;;;;4.95;2.47;;;;;;;;;;5027010;28;20510;-73
2023/08/10 13:01:56;;;;;;;4.50;2.72;;;;;;;;;;5028905;28;20272;-74
2023/08/10 13:04:22;;;;;;;6.07;2.75;;;;;;;;;;5026285;28;20543;-74
2023/08/10 13:06:48;;;;;;;5.05;2.03;;;;;;;;;;5027615;28;20048;-74
2023/08/10 13:09:14;;;;;;;3.35;2.38;;;;;;;;;;5028221;28;20403;-74
2023/08/10 13:11:40;;;;;;;4.85;2.40;;;;;;;;;;5022721;28;20072;-75
2023/08/10 13:14:06;;;;;;;6.22;2.28;;;;;;;;;;5023568;28;20057;-74
2023/08/10 13:16:32;;;;;;;6.38;2.75;;;;;;;;;;5026366;28;20120;-74
2023/08/10 13:18:58;;;;;;;3.75;2.70;;;;;;;;;;5026590;28;20112;-76
2023/08/10 13:21:24;;;;;;;5.65;2.95;;;;;;;;;;5028116;28;20568;-74
2023/08/10 13:23:50;;;;;;;6.00;3.60;;;;;;;;;;5026026;28;20042;-74
2023/08/10 13:26:16;;;;;;;7.03;3.20;;;;;;;;;;5029360;28;20095;-76
2023/08/10 13:28:42;;;;;;;10.40;3.38;;;;;;;;;;5026634;28;20030;-75
2023/08/10 13:31:08;;;;;;;7.78;3.10;;;;;;;;;;5026064;28;20038;-76
2023/08/10 13:33:34;;;;;;;9.15;3.72;;;;;;;;;;5024911;28;20459;-74
2023/08/10 13:36:01;;;;;;;9.75;4.25;;;;;;;;;;5027291;28;20029;-77
2023/08/10 13:38:27;;;;;;;5.15;3.20;;;;;;;;;;5044280;28;20407;-73
2023/08/10 13:40:53;;;;;;;8.25;3.90;;;;;;;;;;5028717;28;20134;-73
2023/08/10 13:43:19;;;;;;;6.55;3.30;;;;;;;;;;5025390;28;20034;-74
2023/08/10 13:45:45;;;;;;;6.10;3.40;;;;;;;;;;5027251;28;20124;-74
2023/08/10 13:48:11;;;;;;;7.72;3.55;;;;;;;;;;5028159;28;20159;-74
2023/08/10 13:50:37;;;;;;;9.15;4.00;;;;;;;;;;5030158;28;20037;-73
2023/08/10 13:53:03;;;;;;;7.65;3.78;;;;;;;;;;5026035;28;20037;-73
2023/08/10 13:55:30;;;;;;;5.70;4.07;;;;;;;;;;5028700;28;20071;-73
2023/08/10 13:57:56;;;;;;;7.22;4.03;;;;;;;;;;5025813;28;20052;-73
2023/08/10 14:00:22;;;;;;;8.43;4.47;;;;;;;;;;5026359;28;20091;-73
2023/08/10 14:02:48;;;;;;;9.75;4.47;;;;;;;;;;5028330;28;20037;-73
2023/08/10 14:05:14;;;;;;;8.98;4.13;;;;;;;;;;5018144;28;20041;-73
2023/08/10 14:07:40;;;;;;;6.30;4.18;;;;;;;;;;5021882;28;20611;-74
2023/08/10 14:10:07;;;;;;;6.80;4.10;;;;;;;;;;5014770;28;20559;-73
2023/08/10 14:12:33;;;;;;;9.32;4.43;;;;;;;;;;5036171;28;20112;-76
2023/08/10 14:14:59;;;;;;;6.82;4.30;;;;;;;;;;5019817;28;20777;-73
2023/08/10 14:17:25;;;;;;;8.40;4.43;;;;;;;;;;5020183;28;20039;-73
2023/08/10 14:19:51;;;;;;;7.78;4.70;;;;;;;;;;5020907;28;20041;-72
2023/08/10 14:22:17;;;;;;;7.78;4.70;;;;;;;;;;5023426;28;20037;-72
2023/08/10 14:24:43;;;;;;;8.48;5.47;;;;;;;;;;5015713;28;20226;-76
2023/08/10 14:27:09;;;;;;;9.93;4.45;;;;;;;;;;5022115;28;20045;-73
2023/08/10 14:29:35;;;;;;;11.25;5.00;;;;;;;;;;5017173;28;20074;-75
2023/08/10 14:32:01;;;;;;;7.43;4.47;;;;;;;;;;5020023;28;20438;-72
2023/08/10 14:34:27;;;;;;;7.05;4.60;;;;;;;;;;5017562;28;20041;-73
2023/08/10 14:36:53;;;;;;;9.65;4.72;;;;;;;;;;5019468;28;20055;-75
2023/08/10 14:39:19;;;;;;;5.68;4.72;;;;;;;;;;5018486;28;20056;-70
2023/08/10 14:41:49;;;;;;;7.95;4.60;;;;;;;;;;5016664;28;20045;-73